W6TQP Weather Reports


Display with metric or nautical units.
time (UTC)temp
F
wind
direction
speed
MPH
gust
MPH
rain 1hr
in
rain 24hr
in
rain mn
in
humidity
%
barometer
mb
20180923050004 53 68 0.0 0.0 0.00 0.00 0.00 100 1014.8
20180923044502 53 112 0.0 0.0 0.00 0.00 0.00 100 1014.9
20180923043004 53 158 0.0 0.0 0.00 0.00 0.00 100 1014.9
20180923041505 53 117 0.0 0.0 0.00 0.00 0.00 100 1014.8
20180923040003 53 122 0.0 3.0 0.00 0.00 0.00 100 1014.5
20180923034503 53 112 0.0 0.0 0.00 0.00 0.00 100 1014.4
20180923033003 53 122 0.0 0.0 0.00 0.00 0.00 100 1014.5
20180923031503 53 152 0.0 0.0 0.00 0.00 0.00 100 1014.5
20180923030002 54 112 0.0 0.0 0.00 0.00 0.00 100 1014.6
20180923024503 54 112 0.0 0.0 0.00 0.00 0.00 100 1014.6
20180923023003 54 158 0.0 2.0 0.00 0.00 0.00 100 1014.9
20180923021502 54 158 0.0 3.0 0.00 0.00 0.00 100 1014.8
20180923020002 54 135 3.0 5.0 0.00 0.00 0.00 100 1014.8
20180923014503 54 139 0.0 0.0 0.00 0.00 0.00 100 1014.7
20180923013004 54 138 1.0 5.0 0.00 0.00 0.00 100 1014.8
20180923011503 55 135 3.0 5.0 0.00 0.00 0.00 96 1014.9
20180923010003 55 129 3.0 7.0 0.00 0.00 0.00 96 1014.9
20180923004503 56 112 3.0 7.0 0.00 0.00 0.00 94 1014.9
20180923003004 56 138 2.0 6.0 0.00 0.00 0.00 92 1014.8
20180923001503 57 114 0.0 6.0 0.00 0.00 0.00 91 1014.9
20180923000003 57 159 1.0 6.0 0.00 0.00 0.00 91 1015.0
20180922234504 56 158 5.0 6.0 0.00 0.00 0.00 91 1015.1
20180922233004 57 112 3.0 5.0 0.00 0.00 0.00 88 1015.3
20180922231503 58 124 3.0 7.0 0.00 0.00 0.00 87 1015.2
20180922230003 58 140 3.0 8.0 0.00 0.00 0.00 87 1015.2
20180922224503 59 112 3.0 7.0 0.00 0.00 0.00 86 1015.3
20180922223004 59 117 4.0 8.0 0.00 0.00 0.00 86 1015.3
20180922221502 59 127 5.0 8.0 0.00 0.00 0.00 85 1015.4
20180922220003 59 135 4.0 8.0 0.00 0.00 0.00 84 1015.6
20180922214503 60 112 4.0 8.0 0.00 0.00 0.00 81 1015.8
20180922213003 60 143 6.0 8.0 0.00 0.00 0.00 82 1015.8
20180922211503 61 180 3.0 7.0 0.00 0.00 0.00 80 1015.9
20180922210005 60 167 5.0 7.0 0.00 0.00 0.00 80 1015.9
20180922204503 62 124 5.0 7.0 0.00 0.00 0.00 77 1016.1
20180922203004 64 174 3.0 7.0 0.00 0.00 0.00 73 1016.2
20180922201503 64 145 5.0 6.0 0.00 0.00 0.00 71 1016.4
20180922200003 62 137 3.0 6.0 0.00 0.00 0.00 75 1016.6
20180922194504 62 104 5.0 6.0 0.00 0.00 0.00 78 1016.7
20180922193004 65 221 3.0 7.0 0.00 0.00 0.00 74 1016.8
20180922191503 65 161 1.0 3.0 0.00 0.00 0.00 73 1016.8
20180922190004 64 184 2.0 6.0 0.00 0.00 0.00 77 1017.0
20180922184503 63 140 3.0 6.0 0.00 0.00 0.00 79 1017.1
20180922183005 62 123 3.0 5.0 0.00 0.00 0.00 81 1017.2
20180922181503 61 157 3.0 5.0 0.00 0.00 0.00 82 1017.3
20180922180003 61 175 0.0 5.0 0.00 0.00 0.00 85 1017.3
20180922174503 58 167 0.0 0.0 0.00 0.00 0.00 89 1017.4
20180922173003 56 129 0.0 5.0 0.00 0.00 0.00 93 1017.4
20180922171503 57 211 0.0 3.0 0.00 0.00 0.00 92 1017.3
20180922170004 56 147 0.0 5.0 0.00 0.00 0.00 95 1017.3
20180922164504 55 180 0.0 0.0 0.00 0.00 0.00 96 1017.3
20180922163008 55 112 2.0 3.0 0.00 0.00 0.00 100 1017.3
20180922161504 53 158 0.0 0.0 0.00 0.00 0.00 100 1017.1
20180922160003 54 124 0.0 3.0 0.00 0.00 0.00 100 1017.1
20180922154503 53 132 0.0 0.0 0.00 0.00 0.00 100 1016.9
20180922153004 53 122 0.0 0.0 0.00 0.00 0.00 100 1016.9
20180922151504 52 154 0.0 0.0 0.00 0.00 0.00 100 1016.9
20180922150005 51 180 0.0 0.0 0.00 0.00 0.00 100 1016.7
20180922144504 51 11 0.0 0.0 0.00 0.00 0.00 100 1016.7
20180922143003 51 158 0.0 0.0 0.00 0.00 0.00 100 1016.6
20180922141505 51 180 0.0 0.0 0.00 0.00 0.00 100 1016.6
20180922140004 51 180 0.0 0.0 0.00 0.00 0.00 100 1016.6
20180922134503 51 180 0.0 0.0 0.00 0.00 0.00 100 1016.5
20180922133004 51 232 0.0 0.0 0.00 0.00 0.00 100 1016.5
20180922131504 51 192 0.0 0.0 0.00 0.00 0.00 100 1016.4
20180922130004 51 25 0.0 0.0 0.00 0.00 0.00 100 1016.4
20180922124503 51 180 0.0 0.0 0.00 0.00 0.00 100 1016.2
20180922123004 51 170 0.0 0.0 0.00 0.00 0.00 100 1016.1
20180922121504 52 180 0.0 0.0 0.00 0.00 0.00 100 1015.9
20180922120003 52 338 0.0 0.0 0.00 0.00 0.00 100 1016.2
20180922114504 52 8 0.0 0.0 0.00 0.00 0.00 100 1016.3
20180922113004 52 270 0.0 0.0 0.00 0.00 0.00 100 1016.2
20180922111504 52 180 0.0 0.0 0.00 0.00 0.00 100 1016.3
20180922110004 52 45 0.0 0.0 0.00 0.00 0.00 100 1016.2
20180922104504 52 225 0.0 0.0 0.00 0.00 0.00 100 1016.1
20180922103003 53 180 0.0 0.0 0.00 0.00 0.00 100 1016.1
20180922101504 53 322 0.0 0.0 0.00 0.00 0.00 100 1016.3
20180922100004 53 170 0.0 0.0 0.00 0.00 0.00 100 1016.5
20180922094503 53 159 0.0 0.0 0.00 0.00 0.00 100 1016.7
20180922093007 53 180 0.0 0.0 0.00 0.00 0.00 100 1016.8
20180922090004 53 135 0.0 0.0 0.00 0.00 0.00 100 1016.9
20180922084503 53 90 0.0 0.0 0.00 0.00 0.00 100 1016.9
20180922083005 53 180 0.0 0.0 0.00 0.00 0.00 100 1017.0
20180922081504 53 190 0.0 0.0 0.00 0.00 0.00 100 1016.9
20180922080003 53 135 0.0 0.0 0.00 0.00 0.00 100 1016.8
20180922074504 54 180 0.0 0.0 0.00 0.00 0.00 100 1016.9
20180922073005 54 352 0.0 0.0 0.00 0.00 0.00 100 1017.1
20180922071504 53 135 0.0 0.0 0.00 0.00 0.00 100 1017.2
20180922070004 53 135 0.0 0.0 0.00 0.00 0.00 100 1017.2
20180922064504 54 145 0.0 0.0 0.00 0.00 0.00 100 1017.0
20180922063006 54 184 0.0 0.0 0.00 0.00 0.00 100 1017.0
20180922061508 55 112 0.0 0.0 0.00 0.00 0.00 100 1017.0
20180922060004 55 74 0.0 1.0 0.00 0.00 0.00 100 1017.4
20180922054503 55 131 0.0 2.0 0.00 0.00 0.00 100 1017.5
20180922053004 55 135 0.0 0.0 0.00 0.00 0.00 100 1017.6
20180922051505 55 117 0.0 2.0 0.00 0.00 0.00 100 1017.6